createdAt,value
2022-12-05T00:01:21.933Z,57.97
2022-12-05T00:04:27.752Z,53.50
2022-12-05T00:07:31.557Z,58.00
2022-12-05T00:13:42.081Z,50.95
2022-12-05T00:16:45.970Z,54.22
2022-12-05T00:19:56.576Z,54.67
2022-12-05T00:23:03.982Z,51.92
2022-12-05T00:26:08.453Z,62.42
2022-12-05T00:29:12.259Z,48.67
2022-12-05T00:35:21.469Z,53.03
2022-12-05T00:38:25.207Z,58.22
2022-12-05T00:41:30.754Z,57.78
2022-12-05T00:44:34.580Z,55.33
2022-12-05T00:50:44.142Z,57.30
2022-12-05T00:53:48.807Z,59.58
2022-12-05T00:56:55.621Z,61.20
2022-12-05T00:59:59.520Z,56.88
2022-12-05T01:03:03.472Z,60.92
2022-12-05T01:06:09.999Z,58.67
2022-12-05T01:09:15.695Z,54.08
2022-12-05T01:12:19.371Z,55.60
2022-12-05T01:15:23.104Z,57.55
2022-12-05T01:18:27.349Z,57.55
2022-12-05T01:21:33.325Z,59.42
2022-12-05T01:24:37.320Z,51.45
2022-12-05T01:27:41.240Z,53.67
2022-12-05T01:33:49.893Z,53.10
2022-12-05T01:36:55.754Z,61.72
2022-12-05T01:39:59.852Z,58.17
2022-12-05T01:43:04.414Z,63.33
2022-12-05T01:46:08.347Z,57.55
2022-12-05T01:49:15.582Z,58.92
2022-12-05T01:52:25.082Z,59.47
2022-12-05T01:55:29.418Z,61.35
2022-12-05T01:58:37.363Z,58.95
2022-12-05T02:01:42.302Z,62.42
2022-12-05T02:04:51.772Z,53.92
2022-12-05T02:07:59.215Z,53.88
2022-12-05T02:11:03.195Z,56.63
2022-12-05T02:14:17.326Z,53.65
2022-12-05T02:20:40.545Z,52.47
2022-12-05T02:24:07.465Z,47.22
2022-12-05T02:27:31.235Z,45.72
2022-12-05T02:30:41.612Z,51.70
2022-12-05T02:33:50.278Z,45.20
2022-12-05T02:36:58.535Z,44.95
2022-12-05T02:40:11.193Z,42.40
2022-12-05T02:43:21.075Z,49.03
2022-12-05T02:46:29.905Z,46.35
2022-12-05T02:49:36.965Z,57.00
2022-12-05T02:52:42.157Z,43.97
2022-12-05T02:55:46.781Z,42.00
2022-12-05T02:58:54.146Z,53.55
2022-12-05T03:01:59.785Z,44.75
2022-12-05T03:05:16.151Z,45.85
2022-12-05T03:08:25.243Z,45.63
2022-12-05T03:11:32.841Z,43.78
2022-12-05T03:14:40.737Z,44.25
2022-12-05T03:17:53.606Z,44.22
2022-12-05T03:21:01.844Z,48.83
2022-12-05T03:24:09.210Z,48.90
2022-12-05T03:27:23.390Z,44.83
2022-12-05T03:33:42.057Z,43.75
2022-12-05T03:36:50.297Z,42.58
2022-12-05T03:40:05.369Z,41.22
2022-12-05T03:43:14.204Z,43.90
2022-12-05T03:46:25.893Z,43.13
2022-12-05T03:49:34.967Z,45.10
2022-12-05T03:53:11.334Z,43.50
2022-12-05T03:56:10.091Z,43.25
2022-12-05T03:59:18.737Z,47.47
2022-12-05T04:02:29.737Z,42.47
2022-12-05T04:05:43.441Z,38.08
2022-12-05T04:08:52.434Z,37.42
2022-12-05T04:12:01.210Z,40.35
2022-12-05T04:15:09.637Z,43.08
2022-12-05T04:18:12.161Z,44.78
2022-12-05T04:21:32.865Z,41.70
2022-12-05T04:24:49.705Z,48.08
2022-12-05T04:28:01.122Z,47.95
2022-12-05T04:31:09.190Z,44.33
2022-12-05T04:34:15.879Z,41.65
2022-12-05T04:37:26.032Z,42.95
2022-12-05T04:40:36.041Z,38.58
2022-12-05T04:43:42.809Z,40.35
2022-12-05T04:46:49.617Z,45.33
2022-12-05T04:49:54.728Z,45.72
2022-12-05T04:53:02.029Z,41.85
2022-12-05T04:56:07.314Z,42.25
2022-12-05T04:59:11.585Z,41.42
2022-12-05T05:02:21.007Z,39.55
2022-12-05T05:05:25.235Z,37.05
2022-12-05T05:08:31.466Z,44.05
2022-12-05T05:11:36.774Z,42.70
2022-12-05T05:14:40.454Z,39.67
2022-12-05T05:17:44.214Z,41.80
2022-12-05T05:20:47.921Z,41.45
2022-12-05T05:23:53.803Z,36.50
2022-12-05T05:26:57.808Z,40.70
2022-12-05T05:30:01.812Z,38.67
2022-12-05T05:33:05.624Z,36.30
2022-12-05T05:36:11.621Z,35.60
2022-12-05T05:39:17.242Z,44.38
2022-12-05T05:42:20.988Z,39.13
2022-12-05T05:45:24.658Z,44.95
2022-12-05T05:48:28.358Z,36.97
2022-12-05T05:51:32.043Z,42.92
2022-12-05T05:54:37.699Z,37.88
2022-12-05T05:57:41.391Z,44.78
2022-12-05T06:00:45.108Z,40.50
2022-12-05T06:03:49.944Z,37.58
2022-12-05T06:06:53.831Z,44.70
2022-12-05T06:09:59.679Z,37.22
2022-12-05T06:13:03.587Z,36.03
2022-12-05T06:16:08.370Z,44.22
2022-12-05T06:19:12.051Z,44.25
2022-12-05T06:22:15.825Z,45.53
2022-12-05T06:25:21.505Z,43.83
2022-12-05T06:28:26.966Z,45.15
2022-12-05T06:31:31.133Z,42.50
2022-12-05T06:34:38.399Z,41.05
2022-12-05T06:37:42.149Z,38.35
2022-12-05T06:40:48.145Z,39.85
2022-12-05T06:44:00.094Z,41.58
2022-12-05T06:47:05.648Z,41.58
2022-12-05T06:53:13.515Z,42.78
2022-12-05T06:56:21.021Z,44.67
2022-12-05T06:59:24.907Z,40.63
2022-12-05T07:05:30.348Z,41.92
2022-12-05T07:11:39.675Z,41.67
2022-12-05T07:14:48.577Z,48.17
2022-12-05T07:17:53.279Z,52.15
2022-12-05T07:21:15.932Z,52.47
2022-12-05T07:24:19.686Z,42.30
2022-12-05T07:27:27.881Z,54.00
2022-12-05T07:30:32.108Z,49.00
2022-12-05T07:33:35.909Z,52.53
2022-12-05T07:36:39.631Z,43.97
2022-12-05T07:39:43.757Z,51.42
2022-12-05T07:42:52.825Z,46.33
2022-12-05T07:45:56.634Z,47.45
2022-12-05T07:52:03.795Z,42.28
2022-12-05T07:55:09.269Z,42.67
2022-12-05T07:58:14.888Z,44.10
2022-12-05T08:01:21.257Z,43.75
2022-12-05T08:04:25.087Z,43.10
2022-12-05T08:07:28.805Z,41.75
2022-12-05T08:10:32.779Z,45.28
2022-12-05T08:16:42.113Z,45.58
2022-12-05T08:22:49.381Z,46.97
2022-12-05T08:25:53.057Z,48.10
2022-12-05T08:29:00.549Z,40.28
2022-12-05T08:32:04.220Z,37.90
2022-12-05T08:35:09.078Z,45.97
2022-12-05T08:38:12.740Z,43.45
2022-12-05T08:41:18.669Z,40.33
2022-12-05T08:44:24.632Z,44.80
2022-12-05T08:47:28.713Z,41.92
2022-12-05T08:50:32.397Z,40.45
2022-12-05T08:53:42.501Z,38.88
2022-12-05T08:56:47.780Z,43.25
2022-12-05T08:59:53.429Z,32.75
2022-12-05T09:02:57.244Z,36.08
2022-12-05T09:09:12.786Z,41.97
2022-12-05T09:12:16.744Z,36.03
2022-12-05T09:15:22.497Z,35.45
2022-12-05T09:18:26.200Z,35.45
2022-12-05T09:21:31.453Z,29.45
2022-12-05T09:24:35.151Z,30.85
2022-12-05T09:27:38.902Z,35.25
2022-12-05T09:33:49.726Z,27.35
2022-12-05T09:37:10.307Z,28.42
2022-12-05T09:40:19.272Z,27.60
2022-12-05T09:43:28.882Z,28.73
2022-12-05T09:46:53.858Z,25.75
2022-12-05T09:50:01.443Z,24.08
2022-12-05T09:53:14.983Z,27.25
2022-12-05T09:56:26.503Z,27.58
2022-12-05T09:59:30.269Z,25.42
2022-12-05T10:02:46.557Z,23.38
2022-12-05T10:05:55.017Z,26.25
2022-12-05T10:09:27.545Z,26.20
2022-12-05T10:12:49.548Z,25.30
2022-12-05T10:15:57.588Z,25.45
2022-12-05T10:19:08.234Z,20.25
2022-12-05T10:22:20.520Z,24.08
2022-12-05T10:25:27.635Z,19.52
2022-12-05T10:28:36.004Z,22.08
2022-12-05T10:31:41.902Z,20.10
2022-12-05T10:34:47.915Z,18.40
2022-12-05T10:37:53.766Z,19.48
2022-12-05T10:41:00.712Z,20.23
2022-12-05T10:44:04.722Z,19.55
2022-12-05T10:47:09.579Z,16.80
2022-12-05T10:50:25.425Z,20.17
2022-12-05T10:53:33.950Z,18.42
2022-12-05T10:56:39.511Z,18.77
2022-12-05T10:59:49.140Z,20.95
2022-12-05T11:02:53.570Z,19.92
2022-12-05T11:06:02.648Z,18.38
2022-12-05T11:09:15.302Z,17.67
2022-12-05T11:12:21.010Z,15.15
2022-12-05T11:15:29.085Z,14.38
2022-12-05T11:18:35.926Z,16.88
2022-12-05T11:21:45.959Z,14.85
2022-12-05T11:24:49.665Z,14.00
2022-12-05T11:27:58.277Z,20.45
2022-12-05T11:31:07.993Z,19.63
2022-12-05T11:34:19.163Z,16.98
2022-12-05T11:37:28.312Z,14.73
2022-12-05T11:40:40.177Z,14.90
2022-12-05T11:43:55.196Z,12.38
2022-12-05T11:47:12.785Z,13.75
2022-12-05T11:50:26.379Z,13.40
2022-12-05T11:53:57.750Z,10.57
2022-12-05T11:57:06.743Z,10.77
2022-12-05T12:00:26.300Z,7.15
2022-12-05T12:03:47.519Z,8.18
2022-12-05T12:07:05.570Z,9.02
2022-12-05T12:10:22.860Z,6.43
2022-12-05T12:13:42.391Z,6.35
2022-12-05T12:16:55.154Z,8.02
2022-12-05T12:20:17.667Z,8.02
2022-12-05T12:23:37.192Z,7.55
2022-12-05T12:26:55.345Z,7.75
2022-12-05T12:30:07.813Z,8.77
2022-12-05T12:33:15.976Z,9.25
2022-12-05T12:36:24.770Z,11.30
2022-12-05T12:39:39.290Z,7.50
2022-12-05T12:42:57.040Z,6.70
2022-12-05T12:46:23.918Z,6.22
2022-12-05T12:49:42.882Z,4.63
2022-12-05T12:53:12.039Z,5.72
2022-12-05T12:56:27.784Z,5.20
2022-12-05T12:59:55.159Z,5.45
2022-12-05T13:03:05.083Z,6.55
2022-12-05T13:06:15.194Z,7.97
2022-12-05T13:09:26.147Z,7.32
2022-12-05T13:12:34.076Z,6.35
2022-12-05T13:15:44.027Z,5.75
2022-12-05T13:18:47.831Z,7.00
2022-12-05T13:21:51.889Z,8.95
2022-12-05T13:24:56.830Z,6.13
2022-12-05T13:28:03.025Z,5.55
2022-12-05T13:31:09.487Z,7.22
2022-12-05T13:34:46.765Z,5.60
2022-12-05T13:38:03.952Z,4.32
2022-12-05T13:41:21.463Z,5.35
2022-12-05T13:44:34.699Z,6.13
2022-12-05T13:47:56.252Z,8.95
2022-12-05T13:51:03.487Z,5.43
2022-12-05T13:54:14.656Z,4.50
2022-12-05T13:57:48.545Z,5.22
2022-12-05T14:00:52.691Z,4.67
2022-12-05T14:04:01.595Z,3.55
2022-12-05T14:07:05.323Z,4.65
2022-12-05T14:10:10.621Z,3.97
2022-12-05T14:13:43.066Z,6.15
2022-12-05T14:16:47.319Z,5.90
2022-12-05T14:20:04.483Z,5.43
2022-12-05T14:23:24.573Z,8.98
2022-12-05T14:26:52.848Z,4.38
2022-12-05T14:30:04.759Z,5.82
2022-12-05T14:33:15.813Z,7.22
2022-12-05T14:36:30.259Z,6.15
2022-12-05T14:39:46.264Z,5.30
2022-12-05T14:42:55.882Z,7.35
2022-12-05T14:46:04.998Z,6.50
2022-12-05T14:49:38.201Z,5.47
2022-12-05T14:55:53.986Z,5.90
2022-12-05T14:59:01.133Z,6.63
2022-12-05T15:02:05.692Z,10.10
2022-12-05T15:05:22.364Z,10.75
2022-12-05T15:08:29.055Z,8.88
2022-12-05T15:11:34.387Z,9.15
2022-12-05T15:14:46.912Z,10.88
2022-12-05T15:17:55.162Z,9.70
2022-12-05T15:21:02.953Z,9.05
2022-12-05T15:24:14.956Z,10.32
2022-12-05T15:27:18.828Z,6.82
2022-12-05T15:33:28.062Z,5.20
2022-12-05T15:36:37.431Z,7.10
2022-12-05T15:40:00.935Z,5.57
2022-12-05T15:43:30.802Z,5.50
2022-12-05T15:46:35.796Z,4.93
2022-12-05T15:49:39.515Z,6.28
2022-12-05T15:52:47.466Z,6.15
2022-12-05T15:55:57.411Z,6.05
2022-12-05T15:59:07.312Z,6.30
2022-12-05T16:02:16.536Z,10.43
2022-12-05T16:05:23.737Z,5.85
2022-12-05T16:08:34.984Z,3.88
2022-12-05T16:11:40.878Z,4.55
2022-12-05T16:14:59.439Z,8.45
2022-12-05T16:18:07.600Z,6.63
2022-12-05T16:21:34.448Z,12.13
2022-12-05T16:24:43.388Z,10.20
2022-12-05T16:28:00.121Z,12.82
2022-12-05T16:31:06.731Z,93.18
2022-12-05T16:34:17.735Z,18.65
2022-12-05T16:37:27.347Z,26.40
2022-12-05T16:40:31.107Z,11.98
2022-12-05T16:43:47.338Z,8.48
2022-12-05T16:46:51.111Z,30.33
2022-12-05T16:49:54.896Z,56.50
2022-12-05T16:53:16.274Z,13.98
2022-12-05T16:56:22.502Z,7.15
2022-12-05T16:59:35.621Z,7.13
2022-12-05T17:02:39.318Z,14.63
2022-12-05T17:05:43.091Z,9.88
2022-12-05T17:08:46.797Z,8.30
2022-12-05T17:11:54.477Z,6.78
2022-12-05T17:15:00.726Z,9.13
2022-12-05T17:18:13.429Z,19.15
2022-12-05T17:21:19.551Z,15.90
2022-12-05T17:24:24.205Z,17.58
2022-12-05T17:27:27.957Z,24.08
2022-12-05T17:30:34.773Z,28.83
2022-12-05T17:33:38.603Z,27.80
2022-12-05T17:36:42.367Z,28.20
2022-12-05T17:39:46.077Z,19.02
2022-12-05T17:42:49.965Z,10.32
2022-12-05T17:49:02.271Z,18.15
2022-12-05T17:52:21.503Z,15.85
2022-12-05T17:55:27.951Z,11.82
2022-12-05T17:58:32.142Z,20.92
2022-12-05T18:01:38.162Z,11.55
2022-12-05T18:04:41.929Z,8.98
2022-12-05T18:07:46.661Z,9.55
2022-12-05T18:10:51.131Z,8.52
2022-12-05T18:13:55.920Z,15.27
2022-12-05T18:17:01.739Z,17.10
2022-12-05T18:20:06.275Z,32.50
2022-12-05T18:23:10.164Z,52.03
2022-12-05T18:26:16.351Z,55.83
2022-12-05T18:29:20.085Z,49.30
2022-12-05T18:32:26.070Z,48.47
2022-12-05T18:35:42.038Z,64.38
2022-12-05T18:38:51.484Z,39.05
2022-12-05T18:41:55.715Z,30.05
2022-12-05T18:44:59.862Z,15.88
2022-12-05T18:51:29.840Z,9.35
2022-12-05T18:54:33.829Z,11.52
2022-12-05T18:57:37.781Z,15.05
2022-12-05T19:03:47.087Z,9.20
2022-12-05T19:06:53.051Z,7.60
2022-12-05T19:09:56.769Z,7.45
2022-12-05T19:13:00.512Z,6.78
2022-12-05T19:16:04.491Z,10.18
2022-12-05T19:19:12.170Z,13.55
2022-12-05T19:22:15.844Z,10.95
2022-12-05T19:25:19.602Z,9.13
2022-12-05T19:28:23.394Z,18.67
2022-12-05T19:31:28.687Z,17.25
2022-12-05T19:34:35.443Z,12.02
2022-12-05T19:37:39.198Z,13.82
2022-12-05T19:40:42.848Z,13.55
2022-12-05T19:46:54.345Z,15.10
2022-12-05T19:50:00.569Z,8.20
2022-12-05T19:53:04.412Z,7.32
2022-12-05T19:56:10.254Z,8.75
2022-12-05T19:59:16.624Z,10.63
2022-12-05T20:02:20.414Z,10.90
2022-12-05T20:08:29.693Z,8.02
2022-12-05T20:11:33.570Z,19.08
2022-12-05T20:17:40.801Z,14.05
2022-12-05T20:20:46.460Z,12.73
2022-12-05T20:23:50.870Z,14.20
2022-12-05T20:26:54.661Z,16.27
2022-12-05T20:29:58.555Z,21.10
2022-12-05T20:33:02.514Z,12.90
2022-12-05T20:36:10.613Z,9.68
2022-12-05T20:39:16.322Z,13.93
2022-12-05T20:42:20.098Z,15.77
2022-12-05T20:45:23.894Z,17.25
2022-12-05T20:48:27.605Z,31.42
2022-12-05T20:51:35.835Z,23.48
2022-12-05T20:54:39.561Z,15.75
2022-12-05T20:57:43.234Z,26.85
2022-12-05T21:00:48.107Z,14.00
2022-12-05T21:03:53.270Z,19.13
2022-12-05T21:06:58.931Z,11.48
2022-12-05T21:10:07.885Z,13.00
2022-12-05T21:13:12.035Z,14.32
2022-12-05T21:16:17.917Z,10.07
2022-12-05T21:19:21.924Z,10.00
2022-12-05T21:22:28.356Z,10.38
2022-12-05T21:25:32.273Z,10.35
2022-12-05T21:28:36.898Z,10.45
2022-12-05T21:31:42.693Z,12.73
2022-12-05T21:34:46.559Z,7.68
2022-12-05T21:40:56.255Z,9.77
2022-12-05T21:44:00.110Z,10.05
2022-12-05T21:50:08.821Z,12.10
2022-12-05T21:53:14.578Z,16.30
2022-12-05T21:56:22.086Z,19.15
2022-12-05T21:59:26.503Z,10.20
2022-12-05T22:02:31.402Z,9.73
2022-12-05T22:05:35.294Z,7.90
2022-12-05T22:08:41.069Z,8.77
2022-12-05T22:11:44.866Z,10.25
2022-12-05T22:17:52.042Z,9.35
2022-12-05T22:20:59.287Z,12.95
2022-12-05T22:24:05.290Z,13.50
2022-12-05T22:27:09.234Z,8.57
2022-12-05T22:33:16.826Z,9.70
2022-12-05T22:36:22.479Z,10.18
2022-12-05T22:39:28.131Z,10.52
2022-12-05T22:42:31.848Z,9.73
2022-12-05T22:45:37.169Z,10.45
2022-12-05T22:48:43.573Z,9.63
2022-12-05T22:51:47.381Z,10.18
2022-12-05T22:54:52.999Z,9.55
2022-12-05T22:57:56.780Z,9.73
2022-12-05T23:01:09.178Z,11.50
2022-12-05T23:04:13.614Z,8.85
2022-12-05T23:07:17.500Z,10.15
2022-12-05T23:10:24.245Z,9.23
2022-12-05T23:13:28.282Z,8.60
2022-12-05T23:16:34.032Z,8.50
2022-12-05T23:19:37.958Z,10.75
2022-12-05T23:22:41.896Z,12.25
2022-12-05T23:28:51.828Z,9.13
2022-12-05T23:31:55.735Z,8.48
2022-12-05T23:34:59.740Z,7.97
2022-12-05T23:41:12.021Z,9.50
2022-12-05T23:44:15.864Z,9.23
2022-12-05T23:50:23.418Z,7.50
2022-12-05T23:56:35.098Z,15.30
2022-12-05T23:59:38.989Z,12.55
